Time;durP1;ratioP1;P1;durP2;ratioP2;P2;SDS_P1;SDS_P2;PMS_P1;PMS_P2;Temp;Humidity;BMP_temperature;BMP_pressure;BME280_temperature;BME280_humidity;BME280_pressure;Samples;Min_cycle;Max_cycle;Signal;HPM_P1;HPM_P2
2021/03/30 14:09:30;;;;;;;42.03;21.95;;;;;;;19.07;55.91;100149.14;1745152;79;39806;-66
2021/03/30 14:12:01;;;;;;;38.58;21.40;;;;;;;19.00;56.14;100147.08;1710256;84;21126;-68
2021/03/30 14:14:27;;;;;;;41.65;21.40;;;;;;;19.07;56.34;100143.06;1693327;82;32921;-69
2021/03/30 14:19:27;;;;;;;38.42;21.35;;;;;;;19.28;56.08;100146.16;1719579;83;21157;-66
2021/03/30 14:21:56;;;;;;;41.13;19.52;;;;;;;19.36;55.78;100141.55;1716615;83;21139;-67
2021/03/30 14:24:46;;;;;;;37.00;21.37;;;;;;;19.51;55.36;100144.77;1719340;83;21164;-69
2021/03/30 14:27:13;;;;;;;38.20;19.77;;;;;;;19.56;55.20;100138.95;1719832;83;21119;-67
2021/03/30 14:29:45;;;;;;;34.23;19.40;;;;;;;19.74;54.97;100133.11;1719961;83;21158;-68
2021/03/30 14:32:13;;;;;;;32.85;19.00;;;;;;;19.77;54.39;100132.94;1719515;83;21586;-67
2021/03/30 14:34:40;;;;;;;32.45;18.37;;;;;;;19.78;54.36;100138.08;1718858;83;21114;-67
2021/03/30 14:37:06;;;;;;;33.20;18.10;;;;;;;19.79;54.09;100129.24;1719174;83;21820;-67
2021/03/30 14:39:32;;;;;;;38.60;18.92;;;;;;;19.86;53.87;100123.03;1719522;83;21145;-68
2021/03/30 14:42:06;;;;;;;32.90;18.62;;;;;;;20.08;53.40;100121.55;1719582;83;21115;-68
2021/03/30 14:52:35;;;;;;;37.90;17.37;;;;;;;20.38;52.16;100114.64;1719472;83;21531;-68
2021/03/30 14:55:10;;;;;;;34.95;17.98;;;;;;;20.33;52.09;100107.28;1718699;83;21182;-68
2021/03/30 14:57:31;;;;;;;39.25;17.50;;;;;;;20.21;52.08;100111.85;1716393;83;21574;-68
2021/03/30 15:00:05;;;;;;;30.32;17.62;;;;;;;20.19;51.97;100114.20;1719296;83;21276;-68
2021/03/30 15:05:13;;;;;;;33.02;17.07;;;;;;;20.10;51.97;100097.74;1719429;83;21092;-66
2021/03/30 15:07:39;;;;;;;28.70;16.35;;;;;;;20.00;52.01;100107.48;1719690;83;21166;-66
2021/03/30 15:10:07;;;;;;;36.60;17.35;;;;;;;20.00;51.79;100102.55;1720112;83;21545;-66
2021/03/30 15:12:33;;;;;;;36.35;17.80;;;;;;;19.86;51.89;100103.17;1718407;83;21113;-68
2021/03/30 15:14:59;;;;;;;33.78;16.60;;;;;;;19.71;52.03;100098.66;1716448;83;21604;-69
2021/03/30 15:17:25;;;;;;;35.20;16.77;;;;;;;19.60;52.13;100094.39;1714980;83;21110;-66
2021/03/30 15:19:51;;;;;;;33.13;16.90;;;;;;;19.48;52.18;100091.85;1715753;83;21085;-68
2021/03/30 15:22:17;;;;;;;33.23;18.20;;;;;;;19.42;52.35;100091.17;1716942;83;21312;-68
2021/03/30 15:24:43;;;;;;;39.95;17.73;;;;;;;19.37;52.51;100093.63;1717451;83;21521;-67
2021/03/30 15:27:10;;;;;;;37.55;16.77;;;;;;;19.26;52.65;100092.67;1715123;83;21122;-65
2021/03/30 15:29:49;;;;;;;34.98;16.62;;;;;;;19.13;52.88;100091.28;1715197;83;21608;-67
2021/03/30 15:32:05;;;;;;;36.23;17.23;;;;;;;19.05;53.05;100082.70;1714428;83;21352;-68
2021/03/30 15:34:31;;;;;;;31.65;15.53;;;;;;;19.01;53.14;100081.88;1715687;83;21135;-66
2021/03/30 15:36:57;;;;;;;34.18;16.23;;;;;;;19.03;53.16;100083.09;1715670;83;21413;-67
2021/03/30 15:39:23;;;;;;;38.15;16.90;;;;;;;19.00;53.22;100077.53;1715360;83;21112;-67
2021/03/30 15:41:48;;;;;;;32.40;16.30;;;;;;;18.99;53.26;100070.44;1715755;83;21132;-68
2021/03/30 15:44:47;;;;;;;31.45;15.45;;;;;;;18.96;53.29;100070.61;1697327;83;21173;-67
2021/03/30 15:47:19;;;;;;;34.63;16.40;;;;;;;18.88;53.43;100073.60;1713287;83;21293;-66
2021/03/30 15:49:55;;;;;;;35.13;15.88;;;;;;;18.76;53.65;100072.63;1715785;83;21125;-69
2021/03/30 15:52:22;;;;;;;34.85;15.98;;;;;;;18.61;53.93;100072.75;1715125;83;21629;-67
2021/03/30 15:54:58;;;;;;;34.10;15.98;;;;;;;18.49;54.15;100077.02;1715180;83;21114;-69
2021/03/30 15:57:16;;;;;;;36.55;17.20;;;;;;;18.40;54.43;100070.98;1695296;83;21206;-66
2021/03/30 15:59:42;;;;;;;36.68;16.15;;;;;;;18.29;54.65;100072.96;1719793;83;21253;-67
2021/03/30 16:02:12;;;;;;;37.75;15.88;;;;;;;18.24;54.81;100074.63;1719835;83;21110;-66
2021/03/30 16:04:40;;;;;;;35.00;16.15;;;;;;;18.20;54.98;100074.33;1719889;83;21658;-67
2021/03/30 16:07:06;;;;;;;33.30;16.02;;;;;;;18.18;55.12;100071.17;1719676;83;21163;-65
2021/03/30 16:09:32;;;;;;;36.68;16.20;;;;;;;18.17;55.22;100067.63;1719937;83;21589;-68
2021/03/30 16:11:59;;;;;;;37.90;16.15;;;;;;;18.18;55.28;100067.05;1701660;82;21330;-68
2021/03/30 16:14:25;;;;;;;38.50;16.40;;;;;;;18.12;55.43;100069.28;1690272;85;21168;-67
2021/03/30 16:16:52;;;;;;;36.30;16.35;;;;;;;18.10;55.56;100075.73;1690044;84;21621;-68
2021/03/30 16:19:20;;;;;;;33.20;16.70;;;;;;;18.02;55.75;100071.83;1690334;84;21148;-67
2021/03/30 16:21:46;;;;;;;39.85;17.05;;;;;;;17.99;55.88;100072.56;1689017;85;21202;-67
2021/03/30 16:24:14;;;;;;;38.58;16.95;;;;;;;17.93;55.99;100068.50;1689799;85;21169;-67
2021/03/30 16:26:40;;;;;;;33.10;16.57;;;;;;;17.84;56.25;100069.53;1689922;84;21160;-66
2021/03/30 16:29:06;;;;;;;38.92;17.45;;;;;;;17.73;56.48;100073.98;1690002;85;21506;-67
2021/03/30 16:31:33;;;;;;;35.33;17.05;;;;;;;17.60;56.68;100071.17;1690009;84;21129;-67
2021/03/30 16:33:59;;;;;;;32.42;16.15;;;;;;;17.52;56.93;100070.77;1690079;84;21129;-69
2021/03/30 16:36:25;;;;;;;42.65;17.10;;;;;;;17.44;57.08;100070.38;1690063;85;21735;-67
2021/03/30 16:38:51;;;;;;;30.95;16.40;;;;;;;17.32;57.29;100065.81;1690025;84;21150;-69
2021/03/30 16:41:17;;;;;;;28.57;15.15;;;;;;;17.15;57.65;100065.42;1689993;85;21605;-67
2021/03/30 16:43:43;;;;;;;37.90;17.20;;;;;;;17.02;57.92;100067.46;1690060;85;21160;-67
2021/03/30 16:46:09;;;;;;;38.35;16.15;;;;;;;16.91;58.17;100078.17;1689989;85;21097;-68
2021/03/30 16:48:36;;;;;;;34.18;16.32;;;;;;;16.78;58.41;100067.10;1670088;85;21131;-69
2021/03/30 16:51:07;;;;;;;31.27;15.45;;;;;;;16.65;58.67;100072.43;1690282;84;21622;-68
2021/03/30 16:53:30;;;;;;;31.60;15.88;;;;;;;16.63;59.38;100065.16;1689395;85;21164;-69
2021/03/30 16:55:56;;;;;;;31.70;15.68;;;;;;;16.58;59.85;100067.34;1690023;85;21264;-67
2021/03/30 16:58:22;;;;;;;33.73;15.93;;;;;;;16.48;60.31;100070.59;1689862;84;21310;-68
2021/03/30 17:00:50;;;;;;;37.08;16.55;;;;;;;16.31;60.32;100068.39;1689777;84;21148;-69
2021/03/30 17:03:16;;;;;;;30.10;15.68;;;;;;;16.16;60.51;100069.75;1689931;84;21199;-67
2021/03/30 17:05:42;;;;;;;34.78;16.23;;;;;;;16.03;60.63;100071.74;1690070;85;21122;-68
2021/03/30 17:08:08;;;;;;;35.08;16.85;;;;;;;15.93;60.80;100068.14;1689861;84;21102;-67
2021/03/30 17:10:34;;;;;;;34.50;16.87;;;;;;;15.80;61.04;100072.05;1689935;85;21156;-68
2021/03/30 17:13:00;;;;;;;33.30;16.35;;;;;;;15.70;61.26;100069.81;1689839;85;21719;-68
2021/03/30 17:15:29;;;;;;;38.50;18.25;;;;;;;15.61;61.47;100071.88;1690014;85;21214;-67
2021/03/30 17:17:55;;;;;;;33.55;17.52;;;;;;;15.47;61.73;100068.94;1689966;84;21326;-67
2021/03/30 17:20:20;;;;;;;36.90;16.77;;;;;;;15.35;62.13;100079.09;1690111;85;21510;-69
2021/03/30 17:22:46;;;;;;;37.30;17.12;;;;;;;15.24;62.44;100071.94;1690024;85;21560;-68
2021/03/30 17:25:19;;;;;;;32.23;16.55;;;;;;;15.24;63.07;100073.86;1690144;85;21148;-67
2021/03/30 17:27:45;;;;;;;39.20;18.17;;;;;;;15.20;63.53;100075.69;1690283;84;21169;-69
2021/03/30 17:30:13;;;;;;;37.63;17.77;;;;;;;15.08;63.76;100072.39;1689936;84;21780;-68
2021/03/30 17:32:40;;;;;;;34.38;17.67;;;;;;;14.95;63.92;100077.08;1690604;82;21230;-67
2021/03/30 17:35:08;;;;;;;33.90;17.40;;;;;;;14.85;64.24;100078.88;1718191;82;21263;-69
2021/03/30 17:37:34;;;;;;;32.80;17.67;;;;;;;14.79;64.45;100078.09;1708034;83;21134;-70
2021/03/30 17:40:01;;;;;;;37.58;17.30;;;;;;;14.71;64.72;100085.25;1718171;83;21090;-67
2021/03/30 17:42:27;;;;;;;35.15;15.72;;;;;;;14.65;64.87;100086.62;1712377;83;21646;-69
2021/03/30 17:44:53;;;;;;;34.55;16.42;;;;;;;14.67;65.38;100078.87;1717095;83;21114;-70
2021/03/30 17:47:19;;;;;;;33.13;16.90;;;;;;;14.66;65.84;100085.46;1714673;83;21256;-70
2021/03/30 17:49:45;;;;;;;33.15;15.32;;;;;;;14.62;66.25;100083.77;1718243;83;21132;-70
2021/03/30 17:52:11;;;;;;;36.60;16.80;;;;;;;14.53;66.38;100084.42;1696503;83;21527;-69
2021/03/30 17:54:38;;;;;;;38.75;17.75;;;;;;;14.44;66.48;100089.41;1719226;83;21148;-68
2021/03/30 17:57:05;;;;;;;37.90;16.87;;;;;;;14.37;66.59;100090.53;1718466;83;21581;-68
2021/03/30 17:59:32;;;;;;;33.98;17.20;;;;;;;14.31;66.67;100089.69;1718058;83;21110;-67
2021/03/30 18:01:57;;;;;;;33.25;17.45;;;;;;;14.25;66.78;100094.55;1717996;83;21688;-67
2021/03/30 18:04:23;;;;;;;39.03;16.97;;;;;;;14.20;66.91;100098.08;1718040;82;21061;-64
2021/03/30 18:06:49;;;;;;;36.55;16.17;;;;;;;14.22;67.44;100093.06;1717681;83;21085;-64
2021/03/30 18:09:15;;;;;;;36.63;16.17;;;;;;;14.22;67.82;100096.59;1719471;83;21339;-66
2021/03/30 18:11:41;;;;;;;39.83;15.80;;;;;;;14.21;68.18;100098.31;1719391;83;21735;-66
2021/03/30 18:14:07;;;;;;;33.18;15.88;;;;;;;14.14;68.29;100099.40;1719566;83;21266;-67
2021/03/30 18:16:37;;;;;;;35.65;16.97;;;;;;;14.07;68.43;100103.23;1719744;83;21545;-66
2021/03/30 18:19:02;;;;;;;35.38;19.42;;;;;;;14.04;68.75;100104.16;1719081;83;21164;-66
2021/03/30 18:21:29;;;;;;;40.52;18.27;;;;;;;14.01;68.70;100099.38;1718211;83;21117;-67
2021/03/30 18:23:55;;;;;;;40.10;18.17;;;;;;;13.97;68.97;100099.01;1702317;83;21624;-67
2021/03/30 18:26:21;;;;;;;36.95;16.37;;;;;;;14.02;69.22;100099.58;1715313;83;21109;-66
2021/03/30 18:28:46;;;;;;;40.92;17.52;;;;;;;14.03;70.12;100103.11;1714619;83;21113;-64
2021/03/30 18:31:12;;;;;;;35.50;15.63;;;;;;;13.99;70.25;100098.89;1719150;83;21081;-66
2021/03/30 18:33:38;;;;;;;34.30;18.80;;;;;;;13.89;71.10;100103.97;1698756;83;21109;-68
2021/03/30 18:36:06;;;;;;;34.75;18.32;;;;;;;13.86;72.08;100108.73;1719338;83;21663;-65
2021/03/30 18:38:32;;;;;;;37.80;18.75;;;;;;;13.85;74.11;100115.30;1719630;83;21133;-64
2021/03/30 18:40:58;;;;;;;37.85;19.48;;;;;;;13.85;74.68;100109.29;1719429;83;21589;-66
2021/03/30 18:43:24;;;;;;;43.55;19.50;;;;;;;13.86;74.80;100121.00;1719312;82;21543;-64
